Time;durP1;ratioP1;P1;durP2;ratioP2;P2;SDS_P1;SDS_P2;PMS_P1;PMS_P2;Temp;Humidity;BMP_temperature;BMP_pressure;BME280_temperature;BME280_humidity;BME280_pressure;Samples;Min_cycle;Max_cycle;Signal;HPM_P1;HPM_P2
2023/10/07 00:01:56;;;;;;;2.90;1.20;;;;;;;17.66;83.33;101030.25;5103355;28;20530;-71
2023/10/07 00:04:22;;;;;;;2.20;0.70;;;;;;;17.67;83.43;101029.13;5104886;28;20816;-71
2023/10/07 00:06:49;;;;;;;2.80;0.87;;;;;;;17.67;83.34;101031.06;5103139;28;20534;-71
2023/10/07 00:09:22;;;;;;;2.37;0.70;;;;;;;17.65;84.05;101028.66;5105124;28;20448;-72
2023/10/07 00:11:49;;;;;;;2.40;0.80;;;;;;;17.70;83.73;101031.16;5105298;28;20877;-71
2023/10/07 00:14:16;;;;;;;4.00;1.40;;;;;;;17.71;83.53;101027.31;5104109;28;20436;-71
2023/10/07 00:16:45;;;;;;;2.73;0.83;;;;;;;17.72;83.71;101019.91;5104987;28;20492;-71
2023/10/07 00:19:14;;;;;;;2.73;1.00;;;;;;;17.71;85.20;101026.50;5104880;28;20981;-72
2023/10/07 00:21:58;;;;;;;3.90;1.17;;;;;;;17.61;85.72;101017.56;5102578;28;20491;-71
2023/10/07 00:24:25;;;;;;;2.40;0.67;;;;;;;17.72;84.22;101008.94;5105371;28;20433;-71
2023/10/07 00:26:53;;;;;;;2.50;0.67;;;;;;;17.72;84.68;101020.69;5105563;28;20532;-72
2023/10/07 00:29:21;;;;;;;3.60;1.40;;;;;;;17.72;84.85;101004.25;5106279;28;20515;-71
2023/10/07 00:31:50;;;;;;;2.97;1.20;;;;;;;17.81;83.98;101018.69;5106496;28;20447;-71
2023/10/07 00:34:26;;;;;;;2.90;1.10;;;;;;;17.81;84.40;100999.50;5108236;28;20538;-71
2023/10/07 00:36:56;;;;;;;6.33;1.00;;;;;;;17.78;84.36;100994.69;5105851;28;20448;-71
2023/10/07 00:39:23;;;;;;;2.87;1.23;;;;;;;17.79;84.21;101007.25;5106886;28;20424;-71
2023/10/07 00:41:57;;;;;;;3.10;1.00;;;;;;;17.87;83.95;101008.31;5106161;28;20528;-71
2023/10/07 00:44:29;;;;;;;4.27;1.27;;;;;;;17.82;84.35;100998.34;5110274;28;20444;-72
2023/10/07 00:47:07;;;;;;;2.73;1.10;;;;;;;17.87;84.20;101008.31;5107151;28;20464;-70
2023/10/07 00:49:40;;;;;;;3.73;1.40;;;;;;;17.85;85.18;101003.16;5108418;28;20423;-70
2023/10/07 00:52:11;;;;;;;2.10;0.80;;;;;;;17.86;84.58;101006.72;5110025;28;20482;-70
2023/10/07 00:54:49;;;;;;;3.80;1.20;;;;;;;17.84;84.72;101004.31;5108746;28;20428;-70
2023/10/07 00:57:24;;;;;;;3.17;1.13;;;;;;;17.86;84.49;101001.22;5107824;28;20537;-70
2023/10/07 00:59:53;;;;;;;2.90;0.97;;;;;;;17.88;84.57;101001.66;5108935;28;20428;-71
2023/10/07 01:02:29;;;;;;;3.63;1.17;;;;;;;17.88;84.86;100993.44;5108951;28;20547;-70
2023/10/07 01:05:06;;;;;;;2.50;0.80;;;;;;;17.87;85.13;100992.66;5108856;28;20441;-70
2023/10/07 01:07:34;;;;;;;3.90;0.87;;;;;;;17.89;85.26;101004.09;5111773;28;20535;-71
2023/10/07 01:10:12;;;;;;;4.43;1.30;;;;;;;17.97;84.58;100990.59;5106666;28;20456;-71
2023/10/07 01:12:39;;;;;;;2.60;1.00;;;;;;;17.98;84.54;100997.72;5108277;28;20424;-70
2023/10/07 01:15:17;;;;;;;3.03;1.30;;;;;;;17.94;84.52;100997.59;5111455;28;20520;-70
2023/10/07 01:17:45;;;;;;;2.47;0.80;;;;;;;17.88;85.39;101007.16;5110493;28;20456;-70
2023/10/07 01:20:14;;;;;;;4.10;1.23;;;;;;;17.90;85.49;101000.19;5110432;28;20448;-70
2023/10/07 01:23:02;;;;;;;2.10;0.83;;;;;;;17.89;85.70;101001.34;5111837;28;20484;-70
2023/10/07 01:25:30;;;;;;;2.37;0.93;;;;;;;17.89;86.09;100995.88;5112534;28;20441;-70
2023/10/07 01:28:00;;;;;;;3.80;1.10;;;;;;;17.86;86.09;100985.56;5107943;28;20528;-71
2023/10/07 01:30:29;;;;;;;2.77;0.90;;;;;;;17.82;86.59;100987.41;5111177;28;20993;-70
2023/10/07 01:33:02;;;;;;;2.33;0.83;;;;;;;17.77;87.73;100984.88;5111136;28;20960;-71
2023/10/07 01:35:33;;;;;;;4.77;1.20;;;;;;;17.79;86.63;100968.09;5110624;28;20466;-71
2023/10/07 01:38:07;;;;;;;2.93;1.33;;;;;;;17.79;86.80;100968.09;5110821;28;20464;-71
2023/10/07 01:40:50;;;;;;;2.47;0.97;;;;;;;17.78;86.86;100961.81;5108835;28;20425;-70
2023/10/07 01:43:20;;;;;;;3.53;1.20;;;;;;;17.79;87.07;100957.91;5109062;28;20427;-70
2023/10/07 01:45:49;;;;;;;4.17;1.30;;;;;;;17.74;87.62;100955.41;5109508;28;20448;-71
2023/10/07 01:48:17;;;;;;;3.47;1.20;;;;;;;17.75;87.54;100957.03;5108603;28;20463;-71
2023/10/07 01:50:46;;;;;;;3.93;1.17;;;;;;;17.75;87.52;100967.16;5110802;28;20444;-70
2023/10/07 01:53:15;;;;;;;4.53;1.20;;;;;;;17.73;87.97;100966.69;5109741;28;20484;-71
2023/10/07 01:55:43;;;;;;;2.40;0.87;;;;;;;17.78;87.59;100950.06;5107025;28;20998;-70
2023/10/07 01:58:13;;;;;;;4.00;0.87;;;;;;;17.79;88.05;100957.13;5108529;28;20432;-70
2023/10/07 02:00:43;;;;;;;2.60;0.90;;;;;;;17.80;88.00;100962.28;5106457;28;20459;-70
2023/10/07 02:03:14;;;;;;;3.80;1.37;;;;;;;17.77;88.63;100954.72;5107783;28;20527;-70
2023/10/07 02:05:48;;;;;;;4.43;1.10;;;;;;;17.79;88.24;100955.19;5088899;28;20444;-70
2023/10/07 02:08:18;;;;;;;3.07;1.07;;;;;;;17.86;87.98;100949.94;5105221;28;20444;-70
2023/10/07 02:10:46;;;;;;;3.20;1.47;;;;;;;17.82;88.51;100961.94;5105456;28;20860;-70
2023/10/07 02:13:14;;;;;;;3.30;1.33;;;;;;;17.86;88.29;100962.84;5105185;28;20443;-70
2023/10/07 02:15:42;;;;;;;4.50;1.30;;;;;;;17.81;88.62;100949.38;5104537;28;20451;-70
2023/10/07 02:18:15;;;;;;;3.13;1.10;;;;;;;17.94;87.41;100950.19;5104035;28;20436;-70
2023/10/07 02:20:44;;;;;;;4.93;1.10;;;;;;;17.95;87.87;100951.78;5087652;28;20515;-70
2023/10/07 02:23:15;;;;;;;4.00;1.10;;;;;;;17.90;88.75;100939.91;5105398;28;20630;-70
2023/10/07 02:25:49;;;;;;;3.83;1.40;;;;;;;17.87;88.58;100948.81;5106279;28;20476;-69
2023/10/07 02:28:15;;;;;;;4.73;1.50;;;;;;;17.95;87.54;100938.09;5106541;28;20452;-69
2023/10/07 02:30:51;;;;;;;6.40;1.43;;;;;;;17.85;88.79;100953.84;5106550;28;20849;-69
2023/10/07 02:33:21;;;;;;;3.90;1.40;;;;;;;17.93;87.87;100940.34;5104689;28;20495;-69
2023/10/07 02:35:54;;;;;;;3.77;1.43;;;;;;;17.91;88.82;100948.91;5107498;28;20448;-70
2023/10/07 02:38:28;;;;;;;3.03;1.13;;;;;;;17.81;89.21;100939.22;5107830;28;20482;-70
2023/10/07 02:41:06;;;;;;;3.43;1.33;;;;;;;17.90;88.11;100944.59;5106415;28;20425;-69
2023/10/07 02:43:35;;;;;;;4.00;1.77;;;;;;;17.90;88.14;100945.38;5105470;28;20432;-70
2023/10/07 02:46:05;;;;;;;3.20;1.40;;;;;;;17.88;88.61;100949.59;5105418;28;20471;-70
2023/10/07 02:48:35;;;;;;;2.73;0.90;;;;;;;17.89;88.24;100941.06;5103731;28;20421;-70
2023/10/07 02:51:10;;;;;;;4.10;1.47;;;;;;;17.86;88.77;100941.72;5104919;28;20441;-70
2023/10/07 02:53:37;;;;;;;3.47;1.50;;;;;;;17.92;88.48;100944.25;5104144;28;20896;-70
2023/10/07 02:56:16;;;;;;;3.10;1.60;;;;;;;17.80;89.57;100943.09;5105307;28;20456;-71
2023/10/07 02:58:58;;;;;;;3.73;1.37;;;;;;;17.80;89.09;100934.09;5105396;28;20458;-70
2023/10/07 03:01:26;;;;;;;4.03;1.70;;;;;;;17.74;89.49;100935.44;5103109;28;20424;-70
2023/10/07 03:03:52;;;;;;;3.20;1.57;;;;;;;17.72;89.30;100919.31;5106980;28;20448;-69
2023/10/07 03:06:19;;;;;;;4.03;1.20;;;;;;;17.69;89.92;100922.72;5107542;28;20472;-70
2023/10/07 03:08:51;;;;;;;3.37;1.60;;;;;;;17.75;89.73;100928.81;5107503;28;20452;-70
2023/10/07 03:11:22;;;;;;;4.13;1.27;;;;;;;17.67;90.40;100933.22;5105821;28;20764;-70
2023/10/07 03:13:50;;;;;;;4.67;2.00;;;;;;;17.67;90.59;100930.50;5106777;28;20428;-70
2023/10/07 03:19:19;;;;;;;4.80;1.30;;;;;;;17.65;90.76;100921.81;5103873;28;20436;-70
2023/10/07 03:22:09;;;;;;;6.20;1.40;;;;;;;17.72;90.21;100918.50;5105454;28;21064;-69
2023/10/07 03:24:42;;;;;;;3.20;1.30;;;;;;;17.73;90.17;100928.31;5107259;28;20497;-70
2023/10/07 03:27:22;;;;;;;3.20;1.30;;;;;;;17.70;90.88;100931.75;5106297;28;20480;-70
2023/10/07 03:30:00;;;;;;;4.03;1.43;;;;;;;17.68;90.70;100918.38;5107859;28;20484;-69
2023/10/07 03:32:53;;;;;;;3.13;1.23;;;;;;;17.68;90.89;100923.06;5110073;28;20432;-70
2023/10/07 03:35:35;;;;;;;4.10;1.60;;;;;;;17.70;90.96;100921.56;5106472;28;20440;-70
2023/10/07 03:38:08;;;;;;;2.80;1.20;;;;;;;17.79;90.44;100922.28;5105643;28;20816;-70
2023/10/07 03:40:38;;;;;;;4.40;1.10;;;;;;;17.72;90.92;100921.25;5108002;28;20421;-70
2023/10/07 03:43:08;;;;;;;3.13;1.23;;;;;;;17.69;91.20;100924.66;5106923;28;20468;-69
2023/10/07 03:45:39;;;;;;;3.60;1.30;;;;;;;17.71;91.06;100925.94;5105111;28;20425;-69
2023/10/07 03:48:22;;;;;;;4.60;1.80;;;;;;;17.73;91.15;100929.13;5106877;28;20425;-70
2023/10/07 03:50:59;;;;;;;3.47;1.27;;;;;;;17.79;90.31;100925.03;5106943;28;20448;-70
2023/10/07 03:53:31;;;;;;;2.67;1.33;;;;;;;17.74;91.42;100927.22;5108435;28;20468;-70
2023/10/07 03:56:00;;;;;;;4.27;1.23;;;;;;;17.75;91.09;100918.66;5100250;28;20476;-70
2023/10/07 03:58:28;;;;;;;2.50;1.30;;;;;;;17.72;91.44;100935.75;5099398;28;20487;-70
2023/10/07 04:00:55;;;;;;;3.20;1.33;;;;;;;17.72;92.05;100941.22;5101309;28;20814;-71
2023/10/07 04:03:24;;;;;;;3.60;1.30;;;;;;;17.80;91.18;100943.09;5097270;28;20483;-70
2023/10/07 04:05:51;;;;;;;3.33;1.53;;;;;;;17.81;90.87;100939.22;5099622;28;20440;-70
2023/10/07 04:08:19;;;;;;;3.10;1.10;;;;;;;17.86;90.49;100929.97;5097294;28;20453;-68
2023/10/07 04:10:47;;;;;;;3.73;1.47;;;;;;;17.86;90.46;100935.44;5093683;28;20436;-68
2023/10/07 04:13:21;;;;;;;4.17;1.73;;;;;;;17.83;90.76;100928.69;5094878;28;20440;-71
2023/10/07 04:15:57;;;;;;;3.20;1.40;;;;;;;17.80;91.52;100934.09;5100408;28;20420;-69
2023/10/07 04:18:34;;;;;;;3.00;1.00;;;;;;;17.77;91.58;100935.56;5107153;28;20485;-70
2023/10/07 04:21:02;;;;;;;3.30;1.40;;;;;;;17.80;91.54;100937.63;5107778;28;20456;-69
2023/10/07 04:23:29;;;;;;;4.07;1.50;;;;;;;17.82;91.42;100934.53;5109136;28;20525;-70
2023/10/07 04:26:09;;;;;;;3.87;1.63;;;;;;;17.79;91.88;100935.19;5109825;28;20486;-69
2023/10/07 04:28:39;;;;;;;8.63;1.60;;;;;;;17.80;91.92;100932.13;5111491;28;20523;-69
2023/10/07 04:31:11;;;;;;;5.93;1.70;;;;;;;17.76;91.76;100933.97;5113040;28;20444;-70
2023/10/07 04:33:48;;;;;;;2.87;1.30;;;;;;;17.78;92.30;100939.88;5111204;28;20417;-70
2023/10/07 04:36:17;;;;;;;2.97;1.43;;;;;;;17.83;91.65;100928.69;5111459;28;20458;-70
2023/10/07 04:38:53;;;;;;;5.37;1.87;;;;;;;17.94;90.88;100931.00;5111359;28;20449;-70
2023/10/07 04:41:36;;;;;;;4.27;1.37;;;;;;;17.85;91.85;100923.69;5112259;28;20428;-70
2023/10/07 04:47:20;;;;;;;2.97;1.10;;;;;;;17.86;91.69;100930.75;5099549;28;20456;-72
2023/10/07 04:49:57;;;;;;;3.20;1.50;;;;;;;17.88;91.43;100916.72;5106361;28;20437;-73
2023/10/07 04:52:28;;;;;;;3.43;1.10;;;;;;;17.83;92.11;100914.19;5102365;28;20430;-72
2023/10/07 04:54:53;;;;;;;2.90;1.13;;;;;;;17.73;94.05;100909.16;5103811;28;20486;-71
2023/10/07 04:57:39;;;;;;;3.53;1.57;;;;;;;17.58;96.70;100913.38;5101494;28;20979;-71
2023/10/07 05:00:08;;;;;;;2.60;1.30;;;;;;;17.28;99.60;100910.78;5103343;28;20253;-71
2023/10/07 05:02:38;;;;;;;3.23;1.80;;;;;;;17.11;100.00;100919.16;5101900;28;20519;-71
2023/10/07 05:05:13;;;;;;;3.07;1.20;;;;;;;16.95;100.00;100918.97;5101313;28;20448;-71
2023/10/07 05:07:43;;;;;;;4.93;1.33;;;;;;;16.82;100.00;100909.94;5103024;28;20475;-71
2023/10/07 05:10:09;;;;;;;4.93;1.57;;;;;;;16.80;100.00;100901.25;5102974;28;20440;-71
2023/10/07 05:12:36;;;;;;;4.40;1.90;;;;;;;16.79;100.00;100916.06;5103512;28;20432;-71
2023/10/07 05:15:05;;;;;;;3.50;1.50;;;;;;;16.83;100.00;100916.22;5103598;28;20511;-72
2023/10/07 05:17:36;;;;;;;3.20;1.37;;;;;;;16.83;100.00;100927.16;5103555;28;20468;-72
2023/10/07 05:20:25;;;;;;;3.60;1.23;;;;;;;16.89;100.00;100920.34;5103356;28;20417;-71
2023/10/07 05:22:50;;;;;;;3.67;1.47;;;;;;;16.98;100.00;100920.25;5102941;28;20480;-71
2023/10/07 05:25:17;;;;;;;3.07;1.27;;;;;;;16.98;100.00;100926.53;5102509;28;20816;-72
2023/10/07 05:27:44;;;;;;;3.53;1.70;;;;;;;17.01;100.00;100919.59;5103643;28;20456;-71
2023/10/07 05:30:12;;;;;;;4.40;1.50;;;;;;;17.15;99.01;100920.88;5103127;28;20441;-71
2023/10/07 05:32:39;;;;;;;2.80;1.17;;;;;;;17.14;99.18;100921.25;5102404;28;20786;-71
2023/10/07 05:35:08;;;;;;;5.97;1.80;;;;;;;17.17;98.79;100915.06;5104479;28;20439;-71
2023/10/07 05:37:36;;;;;;;3.30;1.40;;;;;;;17.23;98.40;100907.47;5105152;28;20900;-71
2023/10/07 05:40:06;;;;;;;3.97;1.80;;;;;;;17.21;98.75;100910.53;5106512;28;20638;-73
2023/10/07 05:42:33;;;;;;;6.37;1.80;;;;;;;17.29;97.55;100917.84;5106014;28;21070;-73
2023/10/07 05:44:59;;;;;;;4.40;1.77;;;;;;;17.39;96.54;100930.31;5104175;28;20445;-72
2023/10/07 05:47:26;;;;;;;3.67;1.60;;;;;;;17.43;96.18;100923.00;5103979;28;20880;-72
2023/10/07 05:49:55;;;;;;;5.43;2.20;;;;;;;17.39;96.58;100919.34;5105259;28;20436;-73
2023/10/07 05:52:24;;;;;;;3.87;1.40;;;;;;;17.35;97.32;100919.25;5105315;28;20496;-72
2023/10/07 05:54:56;;;;;;;6.70;2.07;;;;;;;17.40;96.90;100930.00;5104366;28;20461;-73
2023/10/07 05:57:23;;;;;;;3.17;1.30;;;;;;;17.41;96.68;100939.00;5104992;28;20509;-72
2023/10/07 05:59:50;;;;;;;2.70;0.90;;;;;;;17.52;95.88;100931.13;5104712;28;20443;-72
2023/10/07 06:02:17;;;;;;;2.70;1.10;;;;;;;17.54;95.57;100934.34;5104555;28;20520;-73
2023/10/07 06:04:44;;;;;;;3.13;1.33;;;;;;;17.57;95.55;100922.69;5103111;28;20499;-72
2023/10/07 06:07:13;;;;;;;5.90;1.97;;;;;;;17.64;94.97;100933.91;5104065;28;21007;-73
2023/10/07 06:09:42;;;;;;;3.60;1.27;;;;;;;17.68;94.31;100928.56;5100960;28;20447;-73
2023/10/07 06:12:11;;;;;;;3.10;1.40;;;;;;;17.63;95.19;100932.31;5098715;28;20492;-72
2023/10/07 06:14:38;;;;;;;2.63;1.23;;;;;;;17.61;95.29;100940.06;5100015;28;20452;-72
2023/10/07 06:17:06;;;;;;;3.80;1.47;;;;;;;17.64;94.27;100942.91;5100161;28;20473;-73
2023/10/07 06:19:34;;;;;;;4.40;1.53;;;;;;;17.60;95.49;100946.69;5100065;28;20455;-73
2023/10/07 06:22:10;;;;;;;4.60;2.10;;;;;;;17.64;94.98;100953.09;5100666;28;20448;-70
2023/10/07 06:24:37;;;;;;;3.73;1.50;;;;;;;17.67;94.70;100954.34;5100543;28;20436;-70
2023/10/07 06:27:11;;;;;;;2.80;1.00;;;;;;;17.58;95.46;100954.44;5103660;28;20464;-70
2023/10/07 06:29:41;;;;;;;5.77;1.87;;;;;;;17.57;96.09;100955.56;5108115;28;20444;-70
2023/10/07 06:32:22;;;;;;;4.70;1.77;;;;;;;17.59;95.61;100962.31;5111038;28;20780;-70
2023/10/07 06:34:51;;;;;;;2.83;1.20;;;;;;;17.63;95.14;100970.66;5107836;28;20429;-71
2023/10/07 06:37:21;;;;;;;2.80;1.13;;;;;;;17.70;95.23;100979.13;5106319;28;20460;-70
2023/10/07 06:39:48;;;;;;;4.23;1.80;;;;;;;17.75;94.40;100978.94;5105495;28;20439;-70
2023/10/07 06:42:21;;;;;;;3.73;1.43;;;;;;;17.69;95.13;100974.78;5106056;28;20428;-70
2023/10/07 06:44:48;;;;;;;3.27;1.77;;;;;;;17.65;95.55;100973.84;5106795;28;20425;-70
2023/10/07 06:47:16;;;;;;;3.63;1.77;;;;;;;17.59;96.22;100978.75;5107577;28;20472;-70
2023/10/07 06:49:42;;;;;;;3.60;1.37;;;;;;;17.60;96.22;100977.63;5107074;28;20452;-71
2023/10/07 06:52:12;;;;;;;3.43;1.43;;;;;;;17.64;95.88;100985.97;5106316;28;20468;-71
2023/10/07 06:54:39;;;;;;;5.33;1.63;;;;;;;17.72;95.02;100987.81;5105423;28;20508;-71
2023/10/07 06:57:10;;;;;;;3.43;1.80;;;;;;;17.68;95.66;100989.63;5100310;28;21002;-70
2023/10/07 06:59:40;;;;;;;3.30;2.07;;;;;;;17.72;95.54;100984.28;5097475;28;20424;-76
2023/10/07 07:02:10;;;;;;;3.30;1.47;;;;;;;17.68;96.05;100992.38;5098779;28;20448;-71
2023/10/07 07:04:38;;;;;;;3.60;1.80;;;;;;;17.63;96.84;100992.59;5101224;28;20476;-72
2023/10/07 07:07:11;;;;;;;3.60;1.77;;;;;;;17.60;96.77;100996.78;5101804;28;20472;-71
2023/10/07 07:09:51;;;;;;;4.10;1.80;;;;;;;17.52;97.84;100994.13;5101352;28;20432;-71
2023/10/07 07:12:21;;;;;;;2.97;1.27;;;;;;;17.55;98.01;100997.00;5101603;28;20429;-71
2023/10/07 07:14:59;;;;;;;3.27;1.43;;;;;;;17.58;97.93;101006.50;5101001;28;20428;-71
2023/10/07 07:17:36;;;;;;;3.30;1.60;;;;;;;17.56;98.01;101004.09;5102198;28;20513;-71
2023/10/07 07:22:51;;;;;;;6.00;1.60;;;;;;;17.58;98.30;101017.47;5084225;28;20469;-72
2023/10/07 07:25:23;;;;;;;3.70;2.00;;;;;;;17.62;98.05;101008.22;5102253;28;20428;-71
2023/10/07 07:27:50;;;;;;;3.60;1.43;;;;;;;17.64;98.02;101005.13;5101550;28;20460;-71
2023/10/07 07:30:29;;;;;;;2.90;1.40;;;;;;;17.68;97.13;100997.06;5098200;28;20436;-71
2023/10/07 07:32:59;;;;;;;4.30;1.67;;;;;;;17.66;97.94;101008.31;5082725;28;20436;-71
2023/10/07 07:35:38;;;;;;;2.77;1.10;;;;;;;17.65;98.33;101004.78;5100114;28;20432;-71
2023/10/07 07:38:11;;;;;;;2.67;1.10;;;;;;;17.70;97.74;101006.50;5101094;28;20420;-71
2023/10/07 07:40:41;;;;;;;6.17;1.20;;;;;;;17.71;97.74;101010.88;5101008;28;20421;-71
2023/10/07 07:43:08;;;;;;;2.77;1.10;;;;;;;17.71;97.88;101013.63;5100788;28;20480;-71
2023/10/07 07:45:37;;;;;;;3.33;1.33;;;;;;;17.69;98.17;101015.09;5099366;28;20797;-71
2023/10/07 07:48:06;;;;;;;3.27;1.30;;;;;;;17.76;97.56;101015.38;5100428;28;20448;-70
2023/10/07 07:50:35;;;;;;;3.97;1.57;;;;;;;17.79;97.71;100999.03;5095205;28;20531;-70
2023/10/07 07:53:06;;;;;;;3.13;1.37;;;;;;;17.79;97.88;101001.78;5100831;28;20448;-72
2023/10/07 07:55:34;;;;;;;3.37;1.50;;;;;;;17.79;98.24;101000.97;5103331;28;20474;-73
2023/10/07 07:58:02;;;;;;;4.30;1.40;;;;;;;17.82;98.00;101012.06;5103132;28;20468;-72
2023/10/07 08:00:31;;;;;;;3.00;1.47;;;;;;;17.87;98.25;101020.06;5099570;28;20441;-74
2023/10/07 08:02:59;;;;;;;2.90;1.20;;;;;;;17.82;98.31;101022.22;5103790;28;20574;-73
2023/10/07 08:05:28;;;;;;;3.90;1.70;;;;;;;17.87;98.42;101019.25;5104998;28;20535;-72
2023/10/07 08:07:55;;;;;;;3.30;0.93;;;;;;;17.83;98.75;101012.84;5104408;28;20472;-72
2023/10/07 08:10:23;;;;;;;2.87;1.27;;;;;;;17.87;98.87;101020.06;5105868;28;20471;-71
2023/10/07 08:12:50;;;;;;;3.20;1.00;;;;;;;17.86;98.62;101021.22;5105581;28;20924;-71
2023/10/07 08:15:22;;;;;;;3.37;1.30;;;;;;;17.80;99.92;101025.31;5104842;28;20782;-71
2023/10/07 08:17:52;;;;;;;2.63;1.10;;;;;;;17.76;100.00;101026.34;5104908;28;20464;-71
2023/10/07 08:20:27;;;;;;;3.77;1.20;;;;;;;17.74;100.00;101034.88;5106511;28;20455;-71
2023/10/07 08:22:55;;;;;;;3.20;1.30;;;;;;;17.80;100.00;101035.47;5106306;28;20428;-70
2023/10/07 08:25:36;;;;;;;3.43;1.33;;;;;;;17.78;100.00;101018.56;5106401;28;20474;-71
2023/10/07 08:28:18;;;;;;;4.20;1.50;;;;;;;17.80;100.00;101030.00;5106698;28;20417;-71
2023/10/07 08:30:46;;;;;;;4.00;1.60;;;;;;;17.87;100.00;101011.84;5104842;28;20465;-71
2023/10/07 08:33:14;;;;;;;3.40;1.30;;;;;;;17.80;100.00;101008.88;5104570;28;20440;-71
2023/10/07 08:35:44;;;;;;;4.00;1.70;;;;;;;17.76;100.00;101016.16;5106003;28;20977;-71
2023/10/07 08:38:21;;;;;;;4.37;1.40;;;;;;;17.78;100.00;101026.78;5104031;28;20447;-71
2023/10/07 08:41:04;;;;;;;3.17;1.43;;;;;;;17.89;100.00;101031.50;5105253;28;20425;-71
2023/10/07 08:43:37;;;;;;;3.63;1.50;;;;;;;17.86;100.00;101018.47;5103786;28;20460;-71
2023/10/07 08:46:08;;;;;;;3.00;1.30;;;;;;;17.85;100.00;101016.88;5104905;28;20452;-71
2023/10/07 08:48:38;;;;;;;2.90;1.17;;;;;;;17.92;100.00;101010.03;5102438;28;20428;-72
2023/10/07 08:51:14;;;;;;;4.60;1.83;;;;;;;17.93;100.00;101006.97;5102578;28;20429;-72
2023/10/07 08:53:41;;;;;;;3.43;1.60;;;;;;;17.93;100.00;101000.66;5102734;28;20420;-76
2023/10/07 08:56:09;;;;;;;3.10;1.30;;;;;;;17.94;100.00;101005.81;5104070;28;20521;-71
2023/10/07 08:58:40;;;;;;;3.80;1.87;;;;;;;17.97;100.00;101007.06;5105766;28;20425;-71
2023/10/07 09:01:17;;;;;;;3.47;1.47;;;;;;;17.97;100.00;101007.84;5105812;28;20416;-71
2023/10/07 09:03:47;;;;;;;8.90;2.50;;;;;;;17.99;100.00;101013.81;5104790;28;20897;-71
2023/10/07 09:06:15;;;;;;;3.43;1.77;;;;;;;17.96;100.00;100999.97;5105519;28;20595;-71
2023/10/07 09:08:43;;;;;;;3.20;1.60;;;;;;;17.98;100.00;101009.47;5107130;28;20523;-71
2023/10/07 09:11:12;;;;;;;5.57;2.00;;;;;;;17.93;100.00;101001.47;5106526;28;20444;-71
2023/10/07 09:13:39;;;;;;;4.50;1.83;;;;;;;17.94;100.00;101007.75;5105876;28;20504;-71
2023/10/07 09:16:07;;;;;;;4.33;1.80;;;;;;;17.94;100.00;101013.25;5105000;28;20468;-71
2023/10/07 09:18:39;;;;;;;4.00;1.90;;;;;;;17.92;100.00;101004.53;5104454;28;20440;-70
2023/10/07 09:21:09;;;;;;;3.73;1.77;;;;;;;17.90;100.00;101007.63;5105518;28;20424;-70
2023/10/07 09:23:43;;;;;;;3.60;1.60;;;;;;;17.98;100.00;101006.72;5087728;28;20488;-70
2023/10/07 09:26:21;;;;;;;4.03;1.77;;;;;;;17.96;100.00;101003.50;5102882;28;20468;-71
2023/10/07 09:28:51;;;;;;;4.30;2.17;;;;;;;17.97;100.00;101007.84;5104901;28;20424;-71
2023/10/07 09:31:20;;;;;;;6.17;2.13;;;;;;;17.95;100.00;101003.88;5105300;28;20455;-71
2023/10/07 09:33:49;;;;;;;5.67;1.80;;;;;;;17.92;100.00;101010.81;5103940;28;20444;-71
2023/10/07 09:39:15;;;;;;;3.70;1.73;;;;;;;17.87;100.00;101003.63;5105853;28;20937;-71
2023/10/07 09:41:44;;;;;;;4.83;2.33;;;;;;;17.85;100.00;100997.69;5104871;28;20919;-71
2023/10/07 09:44:26;;;;;;;4.90;1.83;;;;;;;17.85;100.00;100992.22;5106958;28;20484;-71
2023/10/07 09:46:53;;;;;;;4.63;2.20;;;;;;;17.87;100.00;100997.34;5105687;28;20851;-72
2023/10/07 09:49:20;;;;;;;3.53;2.07;;;;;;;17.88;100.00;101005.25;5104237;28;20447;-71
2023/10/07 09:51:50;;;;;;;4.80;2.33;;;;;;;17.77;100.00;101009.53;5106922;28;20534;-71
2023/10/07 09:54:36;;;;;;;6.50;2.40;;;;;;;17.74;100.00;101006.69;5105148;28;20444;-71
2023/10/07 09:57:22;;;;;;;4.00;1.67;;;;;;;17.64;100.00;101003.19;5105240;28;20496;-71
2023/10/07 10:00:37;;;;;;;4.50;2.13;;;;;;;17.61;100.00;101006.59;5104138;28;20455;-71
2023/10/07 10:03:12;;;;;;;5.00;2.20;;;;;;;17.56;100.00;100998.59;5105140;28;20462;-71
2023/10/07 10:06:03;;;;;;;4.00;1.63;;;;;;;17.51;100.00;100995.28;5102674;28;20436;-71
2023/10/07 10:08:56;;;;;;;4.27;2.03;;;;;;;17.47;100.00;100995.16;5102983;28;20448;-71
2023/10/07 10:11:31;;;;;;;7.03;2.50;;;;;;;17.47;100.00;101008.84;5103723;28;20447;-71
2023/10/07 10:14:16;;;;;;;4.00;2.30;;;;;;;17.46;100.00;101001.78;5103628;28;20753;-71
2023/10/07 10:16:47;;;;;;;8.43;2.20;;;;;;;17.46;100.00;100992.75;5102430;28;20471;-71
2023/10/07 10:19:24;;;;;;;6.33;2.67;;;;;;;17.44;100.00;100990.34;5097769;28;20503;-71
2023/10/07 10:21:51;;;;;;;7.73;2.80;;;;;;;17.42;100.00;100987.16;5105085;28;20429;-72
2023/10/07 10:24:23;;;;;;;5.10;2.00;;;;;;;17.43;100.00;100987.94;5103942;28;20612;-72
2023/10/07 10:26:51;;;;;;;4.93;2.40;;;;;;;17.47;100.00;100983.41;5104642;28;20468;-72
2023/10/07 10:29:25;;;;;;;5.97;2.90;;;;;;;17.51;100.00;100981.59;5105244;28;20450;-72
2023/10/07 10:31:58;;;;;;;5.70;2.77;;;;;;;17.53;100.00;100982.03;5105857;28;20488;-72
2023/10/07 10:34:26;;;;;;;6.63;3.50;;;;;;;17.57;100.00;100969.25;5105334;28;20806;-72
2023/10/07 10:36:56;;;;;;;6.10;3.00;;;;;;;17.61;100.00;100976.47;5105953;28;20460;-72
2023/10/07 10:39:25;;;;;;;6.00;3.17;;;;;;;17.59;100.00;100975.22;5106566;28;20445;-72
2023/10/07 10:41:55;;;;;;;5.07;2.60;;;;;;;17.59;100.00;100972.47;5105300;28;20504;-72
2023/10/07 10:44:22;;;;;;;5.60;2.80;;;;;;;17.43;100.00;100958.63;5105636;28;20530;-72
2023/10/07 10:46:50;;;;;;;6.70;3.10;;;;;;;17.26;100.00;100973.28;5104388;28;20528;-72
2023/10/07 10:49:18;;;;;;;6.77;2.90;;;;;;;17.20;100.00;100966.41;5103626;28;20468;-72
2023/10/07 10:51:47;;;;;;;6.90;3.03;;;;;;;17.08;100.00;100969.91;5103232;28;20436;-72
2023/10/07 10:54:16;;;;;;;5.87;3.00;;;;;;;17.00;100.00;100962.59;5105160;28;20437;-71
2023/10/07 10:56:48;;;;;;;5.70;2.50;;;;;;;16.99;100.00;100960.97;5104033;28;20494;-71
2023/10/07 10:59:18;;;;;;;7.60;3.10;;;;;;;17.07;100.00;100953.81;5104543;28;20456;-72
2023/10/07 11:01:47;;;;;;;6.00;3.03;;;;;;;17.01;100.00;100949.69;5104705;28;20523;-72
2023/10/07 11:04:15;;;;;;;7.60;3.13;;;;;;;16.91;100.00;100937.22;5104713;28;20480;-72
2023/10/07 11:06:42;;;;;;;7.73;3.90;;;;;;;16.97;100.00;100943.28;5104395;28;20464;-72
2023/10/07 11:09:17;;;;;;;7.90;3.13;;;;;;;16.97;100.00;100941.34;5105024;28;20459;-72
2023/10/07 11:11:48;;;;;;;8.23;3.40;;;;;;;17.01;100.00;100938.75;5086409;28;20512;-71
2023/10/07 11:14:20;;;;;;;8.50;3.50;;;;;;;17.05;100.00;100943.22;5095145;28;20431;-72
2023/10/07 11:16:48;;;;;;;7.60;3.90;;;;;;;17.07;100.00;100937.41;5104169;28;20468;-70
2023/10/07 11:19:16;;;;;;;7.93;3.87;;;;;;;17.05;100.00;100931.47;5104253;28;20479;-70
2023/10/07 11:21:44;;;;;;;7.30;3.13;;;;;;;17.03;100.00;100937.25;5104499;28;20455;-70
2023/10/07 11:24:24;;;;;;;10.27;4.47;;;;;;;17.02;100.00;100941.13;5104487;28;20516;-70
2023/10/07 11:26:52;;;;;;;8.20;3.50;;;;;;;17.00;100.00;100931.66;5102856;28;20456;-70
2023/10/07 11:29:21;;;;;;;8.17;3.40;;;;;;;16.98;100.00;100931.19;5103835;28;20502;-70
2023/10/07 11:31:47;;;;;;;9.37;4.00;;;;;;;17.07;100.00;100931.91;5101900;28;20482;-70
2023/10/07 11:34:14;;;;;;;9.43;3.20;;;;;;;17.01;100.00;100931.34;5102872;28;20468;-70
2023/10/07 11:36:48;;;;;;;12.80;3.90;;;;;;;17.02;100.00;100927.47;5084909;28;20535;-70
2023/10/07 11:39:15;;;;;;;9.47;3.90;;;;;;;17.01;100.00;100927.81;5103505;28;20447;-70
2023/10/07 11:41:43;;;;;;;10.57;4.40;;;;;;;17.03;100.00;100931.00;5102879;28;20531;-70
2023/10/07 11:44:13;;;;;;;17.20;4.10;;;;;;;16.99;100.00;100927.31;5097990;28;20476;-69
2023/10/07 11:46:41;;;;;;;10.10;4.07;;;;;;;16.98;100.00;100918.31;5092772;28;20483;-70
2023/10/07 11:49:08;;;;;;;9.57;3.70;;;;;;;17.01;100.00;100919.59;5093520;28;21000;-70
2023/10/07 11:51:35;;;;;;;10.50;4.00;;;;;;;16.96;100.00;100923.34;5093913;28;20442;-70
2023/10/07 11:54:01;;;;;;;10.40;4.10;;;;;;;16.96;100.00;100923.34;5093632;28;20475;-69